createdAt,value
2019-04-16T00:00:13.166Z,913.40
2019-04-16T00:01:14.140Z,913.41
2019-04-16T00:02:12.964Z,913.39
2019-04-16T00:03:12.955Z,913.37
2019-04-16T00:04:12.893Z,913.36
2019-04-16T00:05:12.866Z,913.35
2019-04-16T00:06:12.850Z,913.36
2019-04-16T00:07:13.041Z,913.41
2019-04-16T00:08:26.602Z,913.43
2019-04-16T00:09:12.720Z,913.45
2019-04-16T00:10:12.693Z,913.51
2019-04-16T00:11:12.658Z,913.52
2019-04-16T00:12:12.616Z,913.60
2019-04-16T00:13:12.683Z,913.57
2019-04-16T00:14:12.557Z,913.61
2019-04-16T00:15:12.550Z,913.60
2019-04-16T00:16:13.031Z,913.62
2019-04-16T00:17:13.206Z,913.68
2019-04-16T00:18:12.416Z,913.65
2019-04-16T00:19:12.409Z,913.68
2019-04-16T00:20:12.352Z,913.71
2019-04-16T00:21:12.325Z,913.75
2019-04-16T00:22:12.577Z,913.79
2019-04-16T00:23:12.244Z,913.84
2019-04-16T00:24:12.219Z,913.81
2019-04-16T00:25:12.428Z,913.89
2019-04-16T00:26:12.150Z,913.93
2019-04-16T00:27:12.124Z,913.98
2019-04-16T00:28:12.106Z,913.99
2019-04-16T00:29:12.070Z,913.96
2019-04-16T00:30:11.999Z,913.91
2019-04-16T00:31:12.004Z,913.94
2019-04-16T00:32:11.944Z,913.90
2019-04-16T00:33:11.928Z,913.93
2019-04-16T00:34:14.248Z,913.96
2019-04-16T00:35:15.419Z,913.91
2019-04-16T00:36:11.833Z,913.96
2019-04-16T00:37:11.782Z,913.95
2019-04-16T00:38:11.758Z,913.92
2019-04-16T00:39:11.707Z,913.92
2019-04-16T00:40:11.696Z,913.89
2019-04-16T00:41:11.653Z,913.87
2019-04-16T00:42:11.616Z,913.90
2019-04-16T00:43:11.576Z,913.84
2019-04-16T00:44:11.552Z,913.87
2019-04-16T00:45:11.547Z,913.85
2019-04-16T00:46:12.159Z,913.88
2019-04-16T00:47:11.454Z,913.85
2019-04-16T00:48:11.435Z,913.94
2019-04-16T00:49:11.379Z,913.95
2019-04-16T00:50:11.348Z,913.99
2019-04-16T00:51:11.332Z,914.05
2019-04-16T00:52:11.306Z,914.13
2019-04-16T00:53:11.239Z,914.28
2019-04-16T00:54:11.388Z,914.43
2019-04-16T00:55:13.611Z,914.37
2019-04-16T00:56:13.437Z,914.30
2019-04-16T00:57:11.117Z,914.32
2019-04-16T00:58:11.088Z,914.33
2019-04-16T00:59:11.052Z,914.34
2019-04-16T01:00:11.157Z,914.32
2019-04-16T01:01:10.954Z,914.33
2019-04-16T01:02:11.159Z,914.32
2019-04-16T01:03:10.920Z,914.29
2019-04-16T01:04:10.878Z,914.25
2019-04-16T01:05:10.927Z,914.22
2019-04-16T01:06:11.023Z,914.26
2019-04-16T01:07:10.789Z,914.28
2019-04-16T01:08:10.767Z,914.32
2019-04-16T01:09:10.709Z,914.34
2019-04-16T01:10:10.698Z,914.35
2019-04-16T01:11:10.659Z,914.39
2019-04-16T01:12:10.620Z,914.42
2019-04-16T01:13:10.576Z,914.42
2019-04-16T01:14:10.534Z,914.42
2019-04-16T01:15:10.515Z,914.49
2019-04-16T01:16:10.481Z,914.50
2019-04-16T01:17:10.706Z,914.51
2019-04-16T01:18:10.447Z,914.56
2019-04-16T01:19:11.148Z,914.57
2019-04-16T01:20:12.640Z,914.63
2019-04-16T01:21:13.746Z,914.72
2019-04-16T01:22:10.266Z,914.74
2019-04-16T01:23:10.275Z,914.70
2019-04-16T01:24:10.199Z,914.62
2019-04-16T01:25:10.187Z,914.62
2019-04-16T01:26:10.129Z,914.67
2019-04-16T01:27:10.126Z,914.62
2019-04-16T01:28:10.069Z,914.63
2019-04-16T01:29:10.047Z,914.69
2019-04-16T01:30:10.072Z,914.65
2019-04-16T01:31:10.027Z,914.54
2019-04-16T01:32:11.225Z,914.57
2019-04-16T01:33:14.426Z,914.52
2019-04-16T01:34:10.048Z,914.47
2019-04-16T01:35:09.854Z,914.47
2019-04-16T01:36:09.815Z,914.47
2019-04-16T01:37:09.745Z,914.47
2019-04-16T01:38:09.741Z,914.48
2019-04-16T01:39:17.615Z,914.50
2019-04-16T01:40:09.665Z,914.41
2019-04-16T01:41:09.681Z,914.43
2019-04-16T01:42:09.667Z,914.42
2019-04-16T01:43:09.546Z,914.44
2019-04-16T01:44:09.584Z,914.45
2019-04-16T01:45:09.509Z,914.47
2019-04-16T01:46:09.497Z,914.48
2019-04-16T01:47:09.462Z,914.47
2019-04-16T01:48:09.407Z,914.52
2019-04-16T01:49:10.255Z,914.57
2019-04-16T01:50:12.921Z,914.59
2019-04-16T01:51:09.329Z,914.60
2019-04-16T01:52:09.251Z,914.59
2019-04-16T01:53:09.210Z,914.57
2019-04-16T01:54:09.172Z,914.65
2019-04-16T01:55:09.169Z,914.60
2019-04-16T01:56:09.113Z,914.53
2019-04-16T01:57:09.087Z,914.57
2019-04-16T01:58:09.078Z,914.56
2019-04-16T01:59:09.030Z,914.53
2019-04-16T02:00:09.319Z,914.51
2019-04-16T02:01:11.143Z,914.48
2019-04-16T02:02:08.951Z,914.47
2019-04-16T02:03:08.893Z,914.45
2019-04-16T02:04:08.849Z,914.45
2019-04-16T02:05:08.798Z,914.42
2019-04-16T02:06:08.949Z,914.49
2019-04-16T02:07:08.776Z,914.51
2019-04-16T02:08:08.729Z,914.53
2019-04-16T02:09:21.942Z,914.52
2019-04-16T02:10:08.865Z,914.49
2019-04-16T02:11:10.676Z,914.51
2019-04-16T02:12:12.974Z,914.52
2019-04-16T02:13:08.541Z,914.50
2019-04-16T02:14:08.518Z,914.48
2019-04-16T02:15:08.509Z,914.46
2019-04-16T02:16:08.450Z,914.40
2019-04-16T02:17:08.428Z,914.40
2019-04-16T02:18:08.386Z,914.39
2019-04-16T02:19:08.334Z,914.42
2019-04-16T02:20:08.306Z,914.37
2019-04-16T02:21:10.704Z,914.35
2019-04-16T02:22:12.561Z,914.35
2019-04-16T02:23:08.254Z,914.32
2019-04-16T02:24:08.168Z,914.32
2019-04-16T02:25:08.383Z,914.35
2019-04-16T02:26:08.304Z,914.28
2019-04-16T02:27:08.060Z,914.31
2019-04-16T02:28:08.039Z,914.29
2019-04-16T02:29:08.080Z,914.29
2019-04-16T02:30:07.979Z,914.26
2019-04-16T02:31:13.113Z,914.27
2019-04-16T02:32:07.934Z,914.26
2019-04-16T02:33:07.939Z,914.30
2019-04-16T02:34:07.824Z,914.34
2019-04-16T02:35:07.796Z,914.37
2019-04-16T02:36:07.762Z,914.35
2019-04-16T02:37:07.800Z,914.35
2019-04-16T02:38:12.256Z,914.40
2019-04-16T02:39:07.701Z,914.37
2019-04-16T02:40:07.652Z,914.35
2019-04-16T02:41:07.777Z,914.33
2019-04-16T02:42:07.586Z,914.32
2019-04-16T02:43:08.274Z,914.25
2019-04-16T02:44:14.220Z,914.25
2019-04-16T02:45:07.475Z,914.27
2019-04-16T02:46:07.442Z,914.21
2019-04-16T02:47:08.376Z,914.18
2019-04-16T02:48:07.363Z,914.16
2019-04-16T02:49:07.313Z,914.15
2019-04-16T02:50:07.305Z,914.12
2019-04-16T02:51:08.562Z,914.10
2019-04-16T02:52:10.910Z,914.07
2019-04-16T02:53:07.245Z,914.11
2019-04-16T02:54:07.414Z,914.10
2019-04-16T02:55:09.813Z,914.11
2019-04-16T02:56:07.073Z,914.08
2019-04-16T02:57:07.038Z,914.07
2019-04-16T02:58:07.017Z,914.05
2019-04-16T02:59:12.236Z,914.03
2019-04-16T03:00:06.960Z,914.03
2019-04-16T03:01:06.914Z,914.02
2019-04-16T03:02:06.899Z,914.01
2019-04-16T03:03:06.853Z,914.01
2019-04-16T03:04:06.805Z,914.05
2019-04-16T03:05:07.012Z,914.04
2019-04-16T03:06:06.758Z,914.05
2019-04-16T03:07:06.706Z,914.06
2019-04-16T03:08:06.703Z,914.03
2019-04-16T03:09:09.155Z,914.04
2019-04-16T03:10:06.619Z,914.05
2019-04-16T03:11:06.593Z,914.03
2019-04-16T03:12:06.566Z,914.06
2019-04-16T03:13:06.525Z,914.05
2019-04-16T03:14:06.488Z,914.03
2019-04-16T03:15:06.456Z,914.03
2019-04-16T03:16:07.334Z,914.03
2019-04-16T03:17:09.658Z,914.02
2019-04-16T03:18:06.506Z,914.00
2019-04-16T03:19:06.292Z,914.05
2019-04-16T03:20:06.287Z,914.02
2019-04-16T03:21:06.253Z,914.01
2019-04-16T03:22:06.192Z,914.06
2019-04-16T03:23:06.764Z,914.00
2019-04-16T03:24:09.069Z,913.98
2019-04-16T03:25:06.126Z,913.95
2019-04-16T03:26:06.125Z,913.98
2019-04-16T03:27:06.041Z,913.96
2019-04-16T03:28:05.987Z,913.91
2019-04-16T03:29:05.949Z,913.93
2019-04-16T03:30:06.303Z,913.91
2019-04-16T03:31:08.745Z,913.89
2019-04-16T03:32:06.194Z,913.88
2019-04-16T03:33:12.743Z,913.85
2019-04-16T03:34:05.784Z,913.85
2019-04-16T03:35:05.750Z,913.86
2019-04-16T03:36:05.752Z,913.85
2019-04-16T03:38:06.252Z,913.88
2019-04-16T03:39:05.637Z,913.85
2019-04-16T03:40:16.132Z,913.91
2019-04-16T03:41:05.566Z,913.86
2019-04-16T03:42:05.597Z,913.85
2019-04-16T03:43:05.588Z,913.86
2019-04-16T03:44:05.647Z,913.84
2019-04-16T03:45:08.065Z,913.81
2019-04-16T03:46:05.374Z,913.82
2019-04-16T03:47:05.380Z,913.80
2019-04-16T03:48:05.340Z,913.76
2019-04-16T03:49:05.299Z,913.79
2019-04-16T03:50:05.254Z,913.77
2019-04-16T03:51:05.216Z,913.77
2019-04-16T03:52:08.408Z,913.76
2019-04-16T03:53:05.437Z,913.75
2019-04-16T03:54:05.181Z,913.72
2019-04-16T03:55:05.082Z,913.70
2019-04-16T03:56:05.057Z,913.71
2019-04-16T03:57:05.040Z,913.68
2019-04-16T03:58:06.069Z,913.65
2019-04-16T03:59:10.538Z,913.64
2019-04-16T04:00:05.149Z,913.64
2019-04-16T04:01:05.076Z,913.70
2019-04-16T04:02:04.946Z,913.71
2019-04-16T04:03:04.838Z,913.71
2019-04-16T04:04:04.907Z,913.73
2019-04-16T04:05:06.890Z,913.71
2019-04-16T04:06:07.001Z,913.74
2019-04-16T04:07:04.672Z,913.69
2019-04-16T04:08:04.633Z,913.64
2019-04-16T04:09:04.596Z,913.63
2019-04-16T04:10:04.588Z,913.59
2019-04-16T04:11:09.052Z,913.59
2019-04-16T04:12:04.518Z,913.57
2019-04-16T04:13:04.992Z,913.56
2019-04-16T04:14:04.454Z,913.54
2019-04-16T04:15:04.419Z,913.57
2019-04-16T04:16:04.381Z,913.57
2019-04-16T04:17:06.667Z,913.64
2019-04-16T04:18:04.305Z,913.58
2019-04-16T04:19:04.286Z,913.56
2019-04-16T04:20:04.223Z,913.52
2019-04-16T04:21:04.366Z,913.52
2019-04-16T04:22:04.195Z,913.49
2019-04-16T04:23:04.144Z,913.45
2019-04-16T04:24:04.135Z,913.45
2019-04-16T04:25:04.325Z,913.43
2019-04-16T04:26:05.543Z,913.45
2019-04-16T04:27:04.656Z,913.41
2019-04-16T04:28:03.969Z,913.41
2019-04-16T04:29:06.161Z,913.41
2019-04-16T04:30:03.906Z,913.35
2019-04-16T04:31:03.848Z,913.36
2019-04-16T04:32:04.281Z,913.34
2019-04-16T04:33:07.681Z,913.36
2019-04-16T04:34:03.750Z,913.35
2019-04-16T04:35:03.738Z,913.38
2019-04-16T04:36:03.689Z,913.35
2019-04-16T04:37:03.669Z,913.34
2019-04-16T04:38:04.150Z,913.37
2019-04-16T04:39:03.593Z,913.31
2019-04-16T04:40:03.576Z,913.30
2019-04-16T04:41:03.506Z,913.30
2019-04-16T04:42:03.480Z,913.29
2019-04-16T04:43:03.468Z,913.32
2019-04-16T04:44:04.350Z,913.33
2019-04-16T04:45:08.442Z,913.32
2019-04-16T04:46:03.338Z,913.26
2019-04-16T04:47:03.317Z,913.28
2019-04-16T04:48:03.279Z,913.26
2019-04-16T04:49:03.256Z,913.26
2019-04-16T04:50:03.335Z,913.23
2019-04-16T04:51:06.821Z,913.22
2019-04-16T04:52:03.137Z,913.24
2019-04-16T04:53:03.124Z,913.26
2019-04-16T04:54:03.139Z,913.26
2019-04-16T04:55:03.032Z,913.27
2019-04-16T04:56:03.030Z,913.28
2019-04-16T04:57:02.966Z,913.27
2019-04-16T04:58:03.481Z,913.28
2019-04-16T04:59:05.169Z,913.25
2019-04-16T05:00:05.609Z,913.27
2019-04-16T05:01:02.829Z,913.29
2019-04-16T05:02:02.802Z,913.28
2019-04-16T05:03:02.770Z,913.30
2019-04-16T05:04:02.753Z,913.33
2019-04-16T05:05:02.725Z,913.32
2019-04-16T05:06:02.680Z,913.32
2019-04-16T05:07:04.701Z,913.32
2019-04-16T05:08:02.597Z,913.31
2019-04-16T05:09:02.583Z,913.32
2019-04-16T05:10:04.553Z,913.31
2019-04-16T05:11:02.983Z,913.30
2019-04-16T05:12:02.574Z,913.28
2019-04-16T05:13:02.422Z,913.25
2019-04-16T05:14:02.393Z,913.27
2019-04-16T05:15:03.860Z,913.26
2019-04-16T05:16:02.793Z,913.27
2019-04-16T05:17:03.656Z,913.23
2019-04-16T05:18:05.547Z,913.24
2019-04-16T05:19:02.216Z,913.22
2019-04-16T05:20:02.339Z,913.18
2019-04-16T05:21:02.176Z,913.17
2019-04-16T05:22:02.120Z,913.19
2019-04-16T05:23:02.114Z,913.15
2019-04-16T05:24:02.077Z,913.15
2019-04-16T05:25:02.558Z,913.14
2019-04-16T05:26:04.443Z,913.14
2019-04-16T05:27:01.948Z,913.13
2019-04-16T05:28:01.939Z,913.09
2019-04-16T05:29:01.898Z,913.09
2019-04-16T05:30:01.846Z,913.08
2019-04-16T05:31:01.837Z,913.08
2019-04-16T05:32:01.799Z,913.03
2019-04-16T05:33:05.089Z,913.09
2019-04-16T05:34:02.411Z,913.08
2019-04-16T05:35:01.698Z,913.09
2019-04-16T05:36:01.638Z,913.10
2019-04-16T05:37:01.655Z,913.07
2019-04-16T05:38:01.591Z,913.09
2019-04-16T05:39:03.710Z,913.08
2019-04-16T05:40:01.526Z,913.06
2019-04-16T05:41:12.574Z,913.03
2019-04-16T05:42:01.458Z,913.06
2019-04-16T05:43:01.405Z,913.03
2019-04-16T05:44:02.061Z,913.05
2019-04-16T05:45:02.483Z,913.01
2019-04-16T05:46:01.329Z,913.04
2019-04-16T05:47:01.321Z,913.06
2019-04-16T05:48:01.255Z,913.01
2019-04-16T05:49:01.201Z,913.04
2019-04-16T05:50:01.188Z,913.03
2019-04-16T05:51:01.156Z,913.02
2019-04-16T05:52:03.755Z,913.05
2019-04-16T05:53:01.065Z,912.98
2019-04-16T05:54:01.052Z,912.99
2019-04-16T05:55:01.558Z,912.97
2019-04-16T05:56:00.983Z,912.96
2019-04-16T05:58:00.902Z,912.96
2019-04-16T05:59:02.737Z,913.00
2019-04-16T06:00:03.264Z,912.98
2019-04-16T06:01:00.813Z,912.94
2019-04-16T06:02:00.784Z,912.99
2019-04-16T06:03:00.748Z,912.95
2019-04-16T06:04:00.713Z,912.98
2019-04-16T06:05:00.657Z,912.98
2019-04-16T06:06:00.651Z,912.99
2019-04-16T06:07:03.712Z,913.00
2019-04-16T06:08:00.601Z,912.99
2019-04-16T06:09:00.549Z,912.99
2019-04-16T06:10:00.517Z,912.97
2019-04-16T06:11:00.475Z,912.96
2019-04-16T06:12:00.441Z,912.95
2019-04-16T06:13:00.732Z,912.96
2019-04-16T06:14:00.370Z,912.98
2019-04-16T06:15:00.344Z,912.98
2019-04-16T06:16:00.286Z,912.95
2019-04-16T06:17:00.275Z,912.97
2019-04-16T06:18:02.482Z,912.99
2019-04-16T06:19:00.197Z,912.95
2019-04-16T06:20:00.167Z,912.94
2019-04-16T06:21:00.134Z,912.93
2019-04-16T06:22:00.100Z,912.93
2019-04-16T06:24:03.052Z,912.94
2019-04-16T06:24:59.986Z,912.97
2019-04-16T06:25:59.967Z,912.97
2019-04-16T06:26:59.955Z,912.96
2019-04-16T06:27:59.885Z,912.92
2019-04-16T06:29:00.255Z,912.96
2019-04-16T06:30:01.405Z,912.92
2019-04-16T06:31:04.910Z,912.93
2019-04-16T06:31:59.743Z,912.94
2019-04-16T06:32:59.724Z,912.99
2019-04-16T06:33:59.671Z,913.02
2019-04-16T06:34:59.706Z,913.04
2019-04-16T06:35:59.625Z,913.03
2019-04-16T06:36:59.572Z,913.04
2019-04-16T06:37:59.540Z,913.07
2019-04-16T06:39:00.727Z,913.07
2019-04-16T06:40:01.052Z,913.09
2019-04-16T06:41:03.017Z,913.11
2019-04-16T06:41:59.422Z,913.11
2019-04-16T06:43:02.587Z,913.11
2019-04-16T06:43:59.667Z,913.10
2019-04-16T06:45:01.720Z,913.09
2019-04-16T06:45:59.291Z,913.08
2019-04-16T06:46:59.233Z,913.07
2019-04-16T06:47:59.197Z,913.06
2019-04-16T06:48:59.163Z,912.98
2019-04-16T06:49:59.185Z,913.03
2019-04-16T06:50:59.121Z,912.99
2019-04-16T06:51:59.794Z,912.99
2019-04-16T06:52:59.032Z,913.05
2019-04-16T06:53:59.008Z,913.05
2019-04-16T06:55:00.498Z,913.03
2019-04-16T06:55:58.948Z,912.99
2019-04-16T06:56:58.918Z,912.99
2019-04-16T06:57:59.350Z,912.99
2019-04-16T06:58:58.834Z,913.03
2019-04-16T06:59:59.507Z,913.03
2019-04-16T07:00:58.758Z,913.04
2019-04-16T07:01:58.744Z,913.06
2019-04-16T07:03:02.621Z,913.03
2019-04-16T07:03:59.755Z,913.06
2019-04-16T07:05:01.322Z,913.10
2019-04-16T07:06:03.591Z,913.10
2019-04-16T07:06:58.553Z,913.06
2019-04-16T07:07:58.544Z,913.06
2019-04-16T07:08:58.511Z,913.01
2019-04-16T07:09:58.450Z,913.02
2019-04-16T07:10:58.492Z,913.00
2019-04-16T07:11:58.383Z,912.99
2019-04-16T07:12:58.356Z,913.02
2019-04-16T07:13:58.376Z,913.01
2019-04-16T07:14:58.287Z,913.03
2019-04-16T07:15:58.257Z,913.00
2019-04-16T07:17:00.201Z,913.04
2019-04-16T07:17:58.189Z,913.03
2019-04-16T07:18:58.170Z,913.07
2019-04-16T07:19:58.118Z,913.05
2019-04-16T07:20:58.352Z,912.99
2019-04-16T07:21:58.049Z,913.04
2019-04-16T07:22:58.064Z,913.01
2019-04-16T07:23:58.596Z,913.01
2019-04-16T07:25:03.586Z,913.01
2019-04-16T07:25:57.928Z,912.98
2019-04-16T07:26:58.019Z,913.02
2019-04-16T07:27:58.626Z,913.03
2019-04-16T07:28:59.081Z,913.02
2019-04-16T07:29:57.933Z,913.10
2019-04-16T07:30:57.905Z,913.08
2019-04-16T07:31:57.708Z,913.10
2019-04-16T07:33:00.580Z,913.09
2019-04-16T07:33:57.656Z,913.09
2019-04-16T07:34:57.631Z,913.08
2019-04-16T07:35:57.571Z,913.05
2019-04-16T07:37:00.464Z,913.04
2019-04-16T07:37:57.576Z,913.03
2019-04-16T07:38:57.471Z,913.01
2019-04-16T07:39:57.443Z,913.00
2019-04-16T07:40:57.408Z,912.98
2019-04-16T07:42:08.419Z,912.97
2019-04-16T07:42:58.888Z,913.00
2019-04-16T07:43:57.337Z,913.02
2019-04-16T07:44:57.281Z,912.98
2019-04-16T07:45:57.243Z,913.01
2019-04-16T07:46:57.274Z,913.02
2019-04-16T07:47:57.487Z,913.05
2019-04-16T07:48:57.133Z,913.05
2019-04-16T07:50:00.498Z,913.07
2019-04-16T07:50:57.071Z,913.06
2019-04-16T07:51:57.050Z,913.05
2019-04-16T07:52:57.024Z,913.08
2019-04-16T07:53:57.115Z,913.10
2019-04-16T07:54:56.932Z,913.07
2019-04-16T07:55:56.923Z,913.07
2019-04-16T07:56:56.881Z,913.07
2019-04-16T07:57:56.856Z,913.05
2019-04-16T07:59:00.206Z,913.07
2019-04-16T07:59:56.923Z,913.06
2019-04-16T08:00:56.730Z,913.06
2019-04-16T08:01:56.712Z,913.06
2019-04-16T08:02:56.672Z,913.10
2019-04-16T08:04:00.709Z,913.15
2019-04-16T08:04:56.593Z,913.13
2019-04-16T08:05:56.579Z,913.19
2019-04-16T08:06:56.561Z,913.20
2019-04-16T08:07:56.492Z,913.22
2019-04-16T08:08:57.133Z,913.26
2019-04-16T08:10:01.347Z,913.23
2019-04-16T08:10:56.398Z,913.24
2019-04-16T08:11:56.388Z,913.28
2019-04-16T08:12:56.978Z,913.23
2019-04-16T08:13:56.286Z,913.26
2019-04-16T08:14:56.545Z,913.26
2019-04-16T08:15:57.271Z,913.24
2019-04-16T08:16:56.209Z,913.21
2019-04-16T08:17:56.177Z,913.24
2019-04-16T08:18:56.121Z,913.20
2019-04-16T08:19:56.131Z,913.15
2019-04-16T08:21:01.962Z,913.13
2019-04-16T08:21:56.036Z,913.09
2019-04-16T08:22:56.002Z,913.08
2019-04-16T08:23:55.971Z,913.06
2019-04-16T08:24:59.643Z,913.05
2019-04-16T08:26:02.664Z,913.05
2019-04-16T08:26:55.908Z,913.05
2019-04-16T08:27:55.970Z,913.05
2019-04-16T08:28:55.821Z,913.06
2019-04-16T08:29:55.754Z,913.07
2019-04-16T08:30:55.716Z,913.07
2019-04-16T08:31:55.732Z,913.06
2019-04-16T08:32:55.848Z,913.11
2019-04-16T08:33:55.725Z,913.11
2019-04-16T08:34:55.589Z,913.09
2019-04-16T08:35:55.566Z,913.08
2019-04-16T08:36:55.541Z,913.09
2019-04-16T08:37:58.170Z,913.09
2019-04-16T08:38:55.453Z,913.08
2019-04-16T08:39:55.615Z,913.08
2019-04-16T08:40:55.381Z,913.07
2019-04-16T08:41:55.375Z,913.06
2019-04-16T08:42:57.277Z,913.08
2019-04-16T08:43:55.274Z,913.07
2019-04-16T08:44:55.261Z,913.10
2019-04-16T08:45:55.232Z,913.12
2019-04-16T08:46:58.265Z,913.13
2019-04-16T08:47:55.197Z,913.10
2019-04-16T08:48:55.108Z,913.15
2019-04-16T08:49:55.078Z,913.18
2019-04-16T08:50:57.940Z,913.19
2019-04-16T08:51:55.023Z,913.21
2019-04-16T08:52:54.971Z,913.23
2019-04-16T08:53:54.957Z,913.21
2019-04-16T08:54:55.030Z,913.26
2019-04-16T08:55:54.872Z,913.26
2019-04-16T08:56:54.860Z,913.28
2019-04-16T08:57:54.804Z,913.29
2019-04-16T08:58:58.397Z,913.28
2019-04-16T08:59:54.755Z,913.32
2019-04-16T09:00:54.733Z,913.35
2019-04-16T09:01:55.267Z,913.37
2019-04-16T09:02:57.619Z,913.34
2019-04-16T09:03:54.595Z,913.36
2019-04-16T09:04:54.591Z,913.38
2019-04-16T09:05:54.567Z,913.38
2019-04-16T09:06:54.500Z,913.40
2019-04-16T09:07:54.461Z,913.40
2019-04-16T09:08:54.445Z,913.40
2019-04-16T09:09:57.048Z,913.39
2019-04-16T09:10:54.390Z,913.44
2019-04-16T09:11:54.333Z,913.42
2019-04-16T09:13:03.278Z,913.45
2019-04-16T09:13:54.336Z,913.51
2019-04-16T09:14:55.998Z,913.53
2019-04-16T09:15:54.217Z,913.56
2019-04-16T09:16:54.157Z,913.58
2019-04-16T09:17:54.122Z,913.58
2019-04-16T09:18:54.090Z,913.60
2019-04-16T09:19:54.124Z,913.62
2019-04-16T09:20:54.026Z,913.60
2019-04-16T09:21:53.992Z,913.65
2019-04-16T09:22:54.661Z,913.66
2019-04-16T09:23:56.673Z,913.67
2019-04-16T09:24:53.910Z,913.67
2019-04-16T09:25:53.870Z,913.68
2019-04-16T09:26:55.686Z,913.67
2019-04-16T09:27:53.787Z,913.68
2019-04-16T09:28:53.795Z,913.69
2019-04-16T09:29:53.740Z,913.72
2019-04-16T09:30:53.686Z,913.74
2019-04-16T09:31:55.525Z,913.77
2019-04-16T09:32:53.642Z,913.81
2019-04-16T09:33:53.596Z,913.85
2019-04-16T09:35:07.374Z,913.85
2019-04-16T09:35:53.526Z,913.86
2019-04-16T09:36:53.522Z,913.87
2019-04-16T09:37:53.457Z,913.86
2019-04-16T09:38:53.495Z,913.87
2019-04-16T09:39:53.388Z,913.86
2019-04-16T09:40:53.384Z,913.85
2019-04-16T09:41:53.333Z,913.88
2019-04-16T09:42:53.277Z,913.90
2019-04-16T09:43:53.717Z,913.88
2019-04-16T09:44:53.431Z,913.94
2019-04-16T09:45:53.198Z,913.96
2019-04-16T09:46:53.145Z,913.95
2019-04-16T09:47:53.129Z,913.96
2019-04-16T09:48:53.098Z,913.99
2019-04-16T09:49:53.059Z,913.96
2019-04-16T09:50:53.183Z,913.98
2019-04-16T09:51:53.000Z,914.01
2019-04-16T09:52:55.391Z,914.00
2019-04-16T09:53:52.958Z,914.04
2019-04-16T09:54:52.880Z,914.06
2019-04-16T09:55:52.847Z,914.12
2019-04-16T09:56:52.843Z,914.13
2019-04-16T09:57:52.782Z,914.17
2019-04-16T09:58:52.755Z,914.18
2019-04-16T09:59:52.743Z,914.24
2019-04-16T10:00:52.678Z,914.23
2019-04-16T10:01:52.697Z,914.24
2019-04-16T10:02:55.018Z,914.30
2019-04-16T10:03:53.811Z,914.30
2019-04-16T10:04:52.551Z,914.36
2019-04-16T10:05:52.627Z,914.34
2019-04-16T10:06:52.502Z,914.33
2019-04-16T10:07:52.460Z,914.37
2019-04-16T10:08:52.423Z,914.36
2019-04-16T10:09:54.509Z,914.38
2019-04-16T10:10:52.355Z,914.40
2019-04-16T10:12:52.282Z,914.42
2019-04-16T10:13:52.298Z,914.47
2019-04-16T10:14:52.205Z,914.48
2019-04-16T10:15:55.343Z,914.51
2019-04-16T10:16:52.174Z,914.56
2019-04-16T10:17:52.130Z,914.55
2019-04-16T10:18:52.080Z,914.59
2019-04-16T10:19:52.107Z,914.61
2019-04-16T10:20:52.030Z,914.62
2019-04-16T10:21:54.241Z,914.66
2019-04-16T10:22:51.945Z,914.68
2019-04-16T10:23:51.929Z,914.73
2019-04-16T10:24:51.920Z,914.71
2019-04-16T10:25:51.847Z,914.72
2019-04-16T10:26:51.832Z,914.71
2019-04-16T10:27:52.031Z,914.78
2019-04-16T10:28:51.767Z,914.80
2019-04-16T10:29:51.716Z,914.80
2019-04-16T10:30:51.677Z,914.88
2019-04-16T10:31:51.655Z,914.84
2019-04-16T10:32:51.617Z,914.83
2019-04-16T10:33:51.620Z,914.87
2019-04-16T10:34:51.590Z,914.83
2019-04-16T10:35:51.636Z,914.82
2019-04-16T10:36:51.495Z,914.82
2019-04-16T10:37:51.456Z,914.78
2019-04-16T10:38:51.588Z,914.78
2019-04-16T10:39:51.401Z,914.79
2019-04-16T10:40:51.402Z,914.77
2019-04-16T10:41:51.390Z,914.78
2019-04-16T10:42:51.326Z,914.79
2019-04-16T10:43:51.255Z,914.85
2019-04-16T10:44:51.307Z,914.85
2019-04-16T10:45:51.231Z,914.83
2019-04-16T10:46:51.166Z,914.82
2019-04-16T10:47:51.191Z,914.80
2019-04-16T10:48:51.126Z,914.84
2019-04-16T10:49:51.083Z,914.88
2019-04-16T10:50:51.030Z,915.02
2019-04-16T10:51:51.024Z,914.96
2019-04-16T10:52:54.024Z,914.99
2019-04-16T10:53:50.966Z,915.01
2019-04-16T10:54:50.921Z,915.07
2019-04-16T10:55:50.895Z,915.06
2019-04-16T10:56:50.860Z,915.17
2019-04-16T10:57:50.806Z,915.13
2019-04-16T10:58:50.801Z,915.09
2019-04-16T10:59:50.763Z,915.06
2019-04-16T11:00:50.736Z,915.08
2019-04-16T11:01:50.712Z,915.12
2019-04-16T11:02:50.681Z,915.14
2019-04-16T11:03:50.773Z,915.10
2019-04-16T11:04:50.636Z,915.17
2019-04-16T11:06:50.514Z,915.27
2019-04-16T11:07:50.588Z,915.25
2019-04-16T11:08:50.470Z,915.26
2019-04-16T11:09:50.479Z,915.24
2019-04-16T11:10:50.415Z,915.21
2019-04-16T11:11:50.394Z,915.21
2019-04-16T11:12:50.358Z,915.20
2019-04-16T11:13:59.813Z,915.22
2019-04-16T11:14:50.356Z,915.26
2019-04-16T11:15:50.247Z,915.25
2019-04-16T11:16:50.251Z,915.23
2019-04-16T11:17:50.189Z,915.20
2019-04-16T11:18:50.202Z,915.27
2019-04-16T11:19:52.606Z,915.27
2019-04-16T11:20:50.074Z,915.28
2019-04-16T11:21:50.145Z,915.31
2019-04-16T11:22:50.110Z,915.41
2019-04-16T11:23:50.005Z,915.47
2019-04-16T11:24:49.981Z,915.55
2019-04-16T11:25:49.931Z,916.62
2019-04-16T11:26:49.894Z,915.95
2019-04-16T11:27:49.875Z,915.58
2019-04-16T11:28:49.851Z,915.67
2019-04-16T11:29:49.792Z,915.61
2019-04-16T11:30:49.810Z,915.54
2019-04-16T11:31:49.768Z,915.57
2019-04-16T11:32:53.018Z,915.66
2019-04-16T11:33:49.655Z,915.64
2019-04-16T11:34:49.729Z,915.72
2019-04-16T11:35:52.794Z,915.59
2019-04-16T11:36:49.617Z,915.56
2019-04-16T11:37:49.708Z,915.48
2019-04-16T11:38:49.527Z,915.49
2019-04-16T11:39:49.495Z,915.48
2019-04-16T11:40:49.474Z,915.52
2019-04-16T11:41:49.424Z,915.48
2019-04-16T11:42:49.365Z,915.49
2019-04-16T11:43:49.672Z,915.51
2019-04-16T11:44:50.404Z,915.48
2019-04-16T11:45:49.273Z,915.45
2019-04-16T11:46:49.296Z,915.48
2019-04-16T11:47:49.218Z,915.52
2019-04-16T11:48:50.345Z,915.51
2019-04-16T11:49:49.186Z,915.52
2019-04-16T11:50:49.163Z,915.54
2019-04-16T11:51:49.096Z,915.61
2019-04-16T11:52:49.054Z,915.56
2019-04-16T11:53:49.078Z,915.57
2019-04-16T11:54:49.113Z,915.53
2019-04-16T11:55:48.959Z,915.55
2019-04-16T11:56:48.937Z,915.56
2019-04-16T11:57:48.891Z,915.56
2019-04-16T11:58:48.922Z,915.55
2019-04-16T11:59:48.859Z,915.55
2019-04-16T12:00:48.868Z,915.52
2019-04-16T12:01:48.778Z,915.49
2019-04-16T12:02:48.753Z,915.51
2019-04-16T12:03:48.709Z,915.42
2019-04-16T12:04:48.743Z,915.43
2019-04-16T12:05:48.683Z,915.41
2019-04-16T12:06:48.754Z,915.51
2019-04-16T12:07:48.624Z,915.61
2019-04-16T12:08:48.536Z,915.66
2019-04-16T12:09:48.519Z,915.67
2019-04-16T12:11:48.500Z,915.67
2019-04-16T12:12:48.425Z,915.65
2019-04-16T12:13:48.394Z,915.61
2019-04-16T12:14:48.362Z,915.65
2019-04-16T12:15:48.450Z,915.65
2019-04-16T12:16:48.473Z,915.64
2019-04-16T12:17:48.256Z,915.62
2019-04-16T12:18:48.262Z,915.67
2019-04-16T12:19:48.342Z,915.66
2019-04-16T12:20:48.159Z,915.63
2019-04-16T12:21:48.161Z,915.65
2019-04-16T12:22:48.178Z,915.61
2019-04-16T12:23:48.075Z,915.61
2019-04-16T12:24:48.038Z,915.66
2019-04-16T12:25:48.035Z,915.61
2019-04-16T12:26:47.993Z,915.59
2019-04-16T12:27:47.949Z,915.54
2019-04-16T12:28:47.932Z,915.53
2019-04-16T12:29:47.912Z,915.56
2019-04-16T12:30:47.930Z,915.60
2019-04-16T12:31:47.861Z,915.61
2019-04-16T12:32:47.817Z,916.30
2019-04-16T12:33:47.756Z,915.50